Time;durP1;ratioP1;P1;durP2;ratioP2;P2;SDS_P1;SDS_P2;PMS_P1;PMS_P2;Temp;Humidity;BMP_temperature;BMP_pressure;BME280_temperature;BME280_humidity;BME280_pressure;Samples;Min_cycle;Max_cycle;Signal;HPM_P1;HPM_P2
2022/10/22 00:08:32;;;;;;;4.20;2.27;;;13.70;99.90;;;;;;20912542;28;20029;-76
2022/10/22 00:18:33;;;;;;;7.47;2.33;;;13.70;99.90;;;;;;20912073;28;20115;-76
2022/10/22 00:28:34;;;;;;;6.00;2.00;;;13.70;99.90;;;;;;20911268;28;20060;-76
2022/10/22 00:38:34;;;;;;;4.33;1.80;;;13.80;99.90;;;;;;20910766;28;20097;-76
2022/10/22 00:48:35;;;;;;;4.83;1.67;;;13.80;99.90;;;;;;20893519;28;20033;-76
2022/10/22 00:58:42;;;;;;;5.57;3.17;;;13.60;99.90;;;;;;20908950;28;20037;-76
2022/10/22 01:08:53;;;;;;;8.57;3.75;;;13.50;99.90;;;;;;20891393;28;20094;-76
2022/10/22 01:19:10;;;;;;;4.77;2.47;;;13.50;99.90;;;;;;20908384;28;20025;-76
2022/10/22 01:29:32;;;;;;;7.50;1.90;;;13.60;99.90;;;;;;20908007;28;20047;-76
2022/10/22 01:39:35;;;;;;;;;;;13.50;99.90;;;;;;20908139;28;20028;-77
2022/10/22 01:49:52;;;;;;;7.38;1.40;;;13.50;99.90;;;;;;20915192;28;19909;-77
2022/10/22 02:00:00;;;;;;;6.90;1.17;;;13.60;99.90;;;;;;20922603;28;20033;-77
2022/10/22 02:10:02;;;;;;;4.70;2.08;;;13.60;99.90;;;;;;20919818;28;20517;-77
2022/10/22 02:20:18;;;;;;;8.98;3.03;;;13.60;99.90;;;;;;20985853;28;20039;-76
2022/10/22 02:30:22;;;;;;;6.03;3.20;;;13.60;99.90;;;;;;20984619;28;20067;-77
2022/10/22 02:40:23;;;;;;;10.80;6.70;;;13.60;99.90;;;;;;21002493;28;20093;-77
2022/10/22 02:50:24;;;;;;;17.23;7.28;;;13.60;99.90;;;;;;20988726;28;20040;-76
2022/10/22 03:00:25;;;;;;;9.17;5.60;;;13.60;99.90;;;;;;21000917;28;20493;-76
2022/10/22 03:10:26;;;;;;;8.03;4.57;;;13.50;99.90;;;;;;21000181;28;20028;-76
2022/10/22 03:20:26;;;;;;;6.80;3.90;;;13.40;99.90;;;;;;20981433;28;20032;-77
2022/10/22 03:30:27;;;;;;;9.17;4.87;;;13.40;99.90;;;;;;20999543;28;20589;-76
2022/10/22 03:40:28;;;;;;;9.40;4.57;;;13.30;99.90;;;;;;20997215;28;20020;-76
2022/10/22 03:50:29;;;;;;;9.33;5.03;;;13.30;99.90;;;;;;20996764;28;20028;-76
2022/10/22 04:00:30;;;;;;;8.20;4.43;;;13.30;99.90;;;;;;20994305;28;20029;-77
2022/10/22 04:10:31;;;;;;;7.57;4.13;;;13.30;99.90;;;;;;20993080;28;20501;-77
2022/10/22 04:20:31;;;;;;;6.87;3.63;;;13.30;99.90;;;;;;20993150;28;20414;-76
2022/10/22 04:30:33;;;;;;;10.90;3.63;;;13.30;99.90;;;;;;20998056;28;20037;-78
2022/10/22 04:40:33;;;;;;;7.30;4.43;;;13.30;99.90;;;;;;21007935;28;20032;-78
2022/10/22 04:50:34;;;;;;;9.77;4.03;;;13.30;99.90;;;;;;21004693;28;20824;-77
2022/10/22 05:00:35;;;;;;;7.37;3.73;;;13.30;99.90;;;;;;20978271;22;20107;-80
2022/10/22 05:10:36;;;;;;;5.87;3.63;;;13.30;99.90;;;;;;21018626;28;20032;-79
2022/10/22 05:20:40;;;;;;;7.77;4.53;;;13.30;99.90;;;;;;21019852;28;20129;-81
2022/10/22 05:30:41;;;;;;;9.98;3.05;;;13.30;99.90;;;;;;21034784;28;20529;-78
2022/10/22 05:40:42;;;;;;;6.63;3.20;;;13.30;99.90;;;;;;21005470;28;20516;-80
2022/10/22 05:50:45;;;;;;;5.47;3.10;;;13.20;99.90;;;;;;21018049;28;20032;-78
2022/10/22 06:00:45;;;;;;;6.15;3.65;;;13.30;99.90;;;;;;20999107;28;20287;-78
2022/10/22 06:10:46;;;;;;;7.47;4.30;;;13.30;99.90;;;;;;21026836;28;20043;-82
2022/10/22 06:20:47;;;;;;;7.60;4.53;;;13.30;99.90;;;;;;21031367;28;20036;-82
2022/10/22 06:30:48;;;;;;;15.23;7.53;;;13.30;99.90;;;;;;21014444;28;20056;-81
2022/10/22 06:40:49;;;;;;;13.50;6.47;;;13.30;99.90;;;;;;21007655;28;20070;-79
2022/10/22 06:50:50;;;;;;;9.87;6.00;;;13.40;99.90;;;;;;21006355;28;20107;-79
2022/10/22 07:01:00;;;;;;;8.90;5.47;;;13.40;99.90;;;;;;21008257;28;20039;-81
2022/10/22 07:11:10;;;;;;;9.48;5.57;;;13.50;99.90;;;;;;21000138;28;20251;-80
2022/10/22 07:21:13;;;;;;;10.52;5.18;;;13.50;99.90;;;;;;20911266;28;20162;-81
2022/10/22 07:31:16;;;;;;;15.38;7.05;;;13.50;99.90;;;;;;21013250;28;20048;-79
2022/10/22 07:41:17;;;;;;;15.32;5.93;;;13.70;99.90;;;;;;20979774;28;20036;-81
2022/10/22 07:51:18;;;;;;;8.80;5.55;;;14.40;99.90;;;;;;21018207;28;20400;-80
2022/10/22 08:01:18;;;;;;;9.07;3.30;;;15.50;99.90;;;;;;21016702;28;20029;-81
2022/10/22 08:11:19;;;;;;;6.37;4.23;;;16.40;99.90;;;;;;20999354;28;20047;-79
2022/10/22 08:21:20;;;;;;;7.43;3.10;;;17.20;99.90;;;;;;21015777;28;20024;-78
2022/10/22 08:31:21;;;;;;;9.73;3.13;;;18.60;99.90;;;;;;20985104;28;20067;-79
2022/10/22 08:41:23;;;;;;;4.17;1.97;;;18.90;99.90;;;;;;20994442;28;20093;-81
2022/10/22 08:51:28;;;;;;;24.80;12.02;;;19.90;99.90;;;;;;21012973;28;20117;-81
2022/10/22 09:01:45;;;;;;;3.63;1.75;;;21.30;99.90;;;;;;21014439;28;20037;-81
2022/10/22 09:11:50;;;;;;;4.55;2.67;;;19.90;99.90;;;;;;20996765;28;20040;-81
2022/10/22 09:21:59;;;;;;;5.82;1.52;;;21.60;99.90;;;;;;21014484;28;20032;-82
2022/10/22 09:32:00;;;;;;;2.33;1.10;;;22.20;99.90;;;;;;20973121;28;20029;-79
2022/10/22 09:42:01;;;;;;;;;;;23.10;99.90;;;;;;20949890;28;20064;-82
2022/10/22 09:52:02;;;;;;;3.95;1.10;;;22.50;99.90;;;;;;20904639;28;19913;-83
2022/10/22 10:02:12;;;;;;;2.28;0.60;;;22.60;99.90;;;;;;20906465;28;20029;-83
2022/10/22 10:12:28;;;;;;;2.08;0.60;;;24.10;99.90;;;;;;20913663;28;20063;-79
2022/10/22 10:22:51;;;;;;;2.60;0.75;;;24.00;99.90;;;;;;20918661;28;20064;-83
2022/10/22 10:33:24;;;;;;;2.10;0.30;;;24.00;99.90;;;;;;21017268;22;20101;-81
2022/10/22 10:43:48;;;;;;;2.38;0.40;;;23.40;99.90;;;;;;21073936;28;20072;-81
2022/10/22 10:53:58;;;;;;;0.75;0.30;;;23.60;99.90;;;;;;21092178;28;20051;-81
2022/10/22 11:04:10;;;;;;;2.15;0.50;;;24.50;99.90;;;;;;21092400;28;20055;-82
2022/10/22 11:14:22;;;;;;;1.63;0.50;;;23.60;99.90;;;;;;21073527;28;20032;-82
2022/10/22 11:24:29;;;;;;;4.25;0.70;;;23.30;99.90;;;;;;21074069;28;20031;-81
2022/10/22 11:34:42;;;;;;;1.55;0.50;;;24.00;99.90;;;;;;21092170;28;20085;-81
2022/10/22 11:44:47;;;;;;;4.22;0.63;;;23.50;99.90;;;;;;21090856;28;20028;-82
2022/10/22 11:54:48;;;;;;;2.70;0.55;;;23.00;99.90;;;;;;21092444;28;20035;-80
2022/10/22 12:04:48;;;;;;;;;;;23.70;99.90;;;;;;21089878;28;20027;-80
2022/10/22 12:14:57;;;;;;;2.00;0.60;;;23.30;99.90;;;;;;21113105;28;19916;-81
2022/10/22 12:25:08;;;;;;;2.58;0.57;;;22.90;99.90;;;;;;21061660;28;20032;-81
2022/10/22 12:35:19;;;;;;;;;;;23.30;99.90;;;;;;21065344;28;20498;-80
2022/10/22 12:45:25;;;;;;;2.00;0.95;;;24.10;99.90;;;;;;21080884;28;19912;-81
2022/10/22 12:55:26;;;;;;;2.30;0.50;;;24.10;99.90;;;;;;21085059;28;20492;-80
2022/10/22 13:05:37;;;;;;;2.38;0.60;;;24.30;99.90;;;;;;21086116;28;20028;-81
2022/10/22 13:15:38;;;;;;;3.40;0.50;;;24.60;99.90;;;;;;21067071;28;20064;-81
2022/10/22 13:25:39;;;;;;;;;;;23.90;99.90;;;;;;21068215;28;20086;-82
2022/10/22 13:35:40;;;;;;;1.97;0.50;;;23.80;99.90;;;;;;21091513;28;19923;-81
2022/10/22 13:45:41;;;;;;;;;;;24.10;99.90;;;;;;21094427;28;20074;-81
2022/10/22 13:55:43;;;;;;;1.25;0.50;;;25.00;99.90;;;;;;21083862;28;20009;-81
2022/10/22 14:05:46;;;;;;;1.48;0.50;;;24.60;99.90;;;;;;21100632;28;20024;-81
2022/10/22 14:15:50;;;;;;;0.77;0.30;;;24.00;99.90;;;;;;21099878;28;20110;-82
2022/10/22 14:25:51;;;;;;;1.85;0.47;;;24.20;99.90;;;;;;21097782;28;20028;-81
2022/10/22 14:35:51;;;;;;;1.25;0.50;;;24.30;99.90;;;;;;21101793;28;20039;-81
2022/10/22 14:45:53;;;;;;;;;;;24.40;99.90;;;;;;21098926;28;20036;-80
2022/10/22 14:55:57;;;;;;;2.13;0.50;;;23.60;99.90;;;;;;21087202;28;20003;-82
2022/10/22 15:05:58;;;;;;;2.10;0.70;;;23.20;99.90;;;;;;21006136;28;20036;-81
2022/10/22 15:15:58;;;;;;;;;;;23.20;99.90;;;;;;21035080;28;20048;-80
2022/10/22 15:25:59;;;;;;;1.60;1.40;;;22.70;99.90;;;;;;21096104;28;20015;-79
2022/10/22 15:36:12;;;;;;;2.00;0.60;;;22.40;99.90;;;;;;21097538;28;20036;-80
2022/10/22 15:46:17;;;;;;;2.78;0.60;;;21.90;99.90;;;;;;21012771;28;20024;-80
2022/10/22 15:56:18;;;;;;;9.98;1.05;;;21.40;99.90;;;;;;21076111;28;20119;-80
2022/10/22 16:06:19;;;;;;;7.37;0.93;;;19.50;99.90;;;;;;21018866;28;20393;-80
2022/10/22 16:16:21;;;;;;;3.30;0.97;;;19.00;99.90;;;;;;21031823;28;20606;-80
2022/10/22 16:26:21;;;;;;;;;;;18.40;99.90;;;;;;21090247;28;20034;-80
2022/10/22 16:36:22;;;;;;;3.07;0.93;;;17.30;99.90;;;;;;21038151;22;19967;-76
2022/10/22 16:46:23;;;;;;;2.47;0.80;;;16.50;99.90;;;;;;20994452;28;20040;-76
2022/10/22 16:56:24;;;;;;;8.63;1.23;;;16.30;99.90;;;;;;21059837;28;20036;-77
2022/10/22 17:06:25;;;;;;;;;;;16.90;99.90;;;;;;21075592;28;20107;-77
2022/10/22 17:16:26;;;;;;;4.40;1.47;;;16.60;99.90;;;;;;21051631;28;19951;-76
2022/10/22 17:26:27;;;;;;;4.53;1.23;;;15.80;99.90;;;;;;21095867;28;20085;-77
2022/10/22 17:36:29;;;;;;;7.28;3.00;;;15.90;99.90;;;;;;21102195;28;20067;-77
2022/10/22 17:46:31;;;;;;;9.30;1.50;;;16.10;99.90;;;;;;21101113;28;20111;-76
2022/10/22 17:56:32;;;;;;;5.60;3.13;;;15.40;99.90;;;;;;21097186;28;20165;-77
2022/10/22 18:06:33;;;;;;;7.50;2.60;;;15.50;99.90;;;;;;21098371;28;20051;-77
2022/10/22 18:16:34;;;;;;;6.68;3.20;;;15.60;99.90;;;;;;21100679;28;20063;-76
2022/10/22 18:26:35;;;;;;;13.63;3.57;;;15.30;99.90;;;;;;21091028;28;20500;-77
2022/10/22 18:36:36;;;;;;;6.40;2.67;;;15.20;99.90;;;;;;21083149;28;20081;-77
2022/10/22 18:46:38;;;;;;;4.30;2.53;;;14.80;99.90;;;;;;21084623;28;20494;-77
2022/10/22 18:56:39;;;;;;;13.32;3.30;;;14.90;99.90;;;;;;21084402;28;20118;-76
2022/10/22 19:06:40;;;;;;;10.07;2.90;;;14.60;99.90;;;;;;21083821;28;20033;-76
2022/10/22 19:16:41;;;;;;;17.70;3.90;;;14.30;99.90;;;;;;21083096;28;20115;-77
2022/10/22 19:26:43;;;;;;;11.03;2.57;;;14.30;99.90;;;;;;21080781;28;20047;-75
2022/10/22 19:36:43;;;;;;;;;;;14.20;99.90;;;;;;21083564;28;20038;-76
2022/10/22 19:46:44;;;;;;;5.50;2.80;;;14.30;99.90;;;;;;21078208;28;19947;-76
2022/10/22 19:56:46;;;;;;;8.40;3.00;;;14.30;99.90;;;;;;21079797;28;20024;-77
2022/10/22 20:06:46;;;;;;;14.63;3.35;;;14.20;99.90;;;;;;21078092;28;20031;-76
2022/10/22 20:16:47;;;;;;;8.67;3.27;;;14.00;99.90;;;;;;21078524;28;20038;-76
2022/10/22 20:26:48;;;;;;;8.77;3.00;;;13.80;99.90;;;;;;21077387;28;20482;-77
2022/10/22 20:36:49;;;;;;;14.97;3.87;;;13.90;99.90;;;;;;21076567;28;20028;-77
2022/10/22 20:46:50;;;;;;;12.57;3.17;;;13.70;99.90;;;;;;21076290;28;20031;-77
2022/10/22 20:56:51;;;;;;;10.20;3.22;;;13.50;99.90;;;;;;21073414;28;20043;-76
2022/10/22 21:06:52;;;;;;;8.73;3.10;;;13.40;99.90;;;;;;21075427;28;20541;-76
2022/10/22 21:16:53;;;;;;;6.22;2.90;;;13.50;99.90;;;;;;21071158;28;20032;-76
2022/10/22 21:26:54;;;;;;;14.40;3.20;;;13.40;99.90;;;;;;21071005;28;20088;-76
2022/10/22 21:36:54;;;;;;;11.60;2.53;;;13.30;99.90;;;;;;21071666;28;20035;-76
2022/10/22 21:46:55;;;;;;;6.80;2.90;;;13.20;99.90;;;;;;21071253;28;20086;-77
2022/10/22 21:56:56;;;;;;;9.47;2.87;;;13.10;99.90;;;;;;21071211;28;20017;-76
2022/10/22 22:06:57;;;;;;;6.37;2.83;;;13.00;99.90;;;;;;21077207;28;20147;-76
2022/10/22 22:16:58;;;;;;;10.70;2.23;;;12.90;99.90;;;;;;21083743;28;20439;-77
2022/10/22 22:26:58;;;;;;;5.17;2.20;;;12.80;99.90;;;;;;21085107;28;20028;-76
2022/10/22 22:36:59;;;;;;;15.97;3.50;;;12.80;99.90;;;;;;21107832;22;20571;-79
2022/10/22 22:47:00;;;;;;;6.60;2.73;;;12.60;99.90;;;;;;21088081;28;20032;-79
2022/10/22 22:57:01;;;;;;;4.40;1.80;;;12.50;99.90;;;;;;20962846;28;20063;-79
2022/10/22 23:07:01;;;;;;;5.63;1.50;;;12.50;99.90;;;;;;20965700;28;20024;-80
2022/10/22 23:17:02;;;;;;;14.47;2.37;;;12.60;99.90;;;;;;20964333;28;20039;-79
2022/10/22 23:27:03;;;;;;;4.13;1.53;;;12.60;99.90;;;;;;20962295;28;20108;-80
2022/10/22 23:37:04;;;;;;;5.60;1.50;;;12.50;99.90;;;;;;20958234;28;20036;-79
2022/10/22 23:47:05;;;;;;;7.27;2.77;;;12.50;99.90;;;;;;20951578;28;20275;-80
2022/10/22 23:57:06;;;;;;;4.90;2.40;;;12.50;99.90;;;;;;20993228;28;20037;-79
